sensor_id;sensor_type;location;lat;lon;timestamp;P1;durP1;ratioP1;P2;durP2;ratioP2
12145;SDS011;6136;47.032;15.398;2023-10-09T00:00:35;1.50;;;1.40;;
12145;SDS011;6136;47.032;15.398;2023-10-09T00:03:17;1.27;;;1.17;;
12145;SDS011;6136;47.032;15.398;2023-10-09T00:05:47;3.47;;;1.33;;
12145;SDS011;6136;47.032;15.398;2023-10-09T00:08:20;1.43;;;1.20;;
12145;SDS011;6136;47.032;15.398;2023-10-09T00:10:53;3.43;;;1.50;;
12145;SDS011;6136;47.032;15.398;2023-10-09T00:13:22;2.30;;;1.40;;
12145;SDS011;6136;47.032;15.398;2023-10-09T00:15:56;1.87;;;1.33;;
12145;SDS011;6136;47.032;15.398;2023-10-09T00:18:28;6.67;;;1.53;;
12145;SDS011;6136;47.032;15.398;2023-10-09T00:20:58;1.60;;;1.47;;
12145;SDS011;6136;47.032;15.398;2023-10-09T00:23:38;1.77;;;1.37;;
12145;SDS011;6136;47.032;15.398;2023-10-09T00:26:07;1.50;;;1.30;;
12145;SDS011;6136;47.032;15.398;2023-10-09T00:28:47;1.73;;;1.30;;
12145;SDS011;6136;47.032;15.398;2023-10-09T00:31:18;1.30;;;1.17;;
12145;SDS011;6136;47.032;15.398;2023-10-09T00:33:56;1.57;;;1.30;;
12145;SDS011;6136;47.032;15.398;2023-10-09T00:36:36;2.40;;;1.43;;
12145;SDS011;6136;47.032;15.398;2023-10-09T00:39:18;2.97;;;1.77;;
12145;SDS011;6136;47.032;15.398;2023-10-09T00:42:00;2.30;;;1.70;;
12145;SDS011;6136;47.032;15.398;2023-10-09T00:44:29;1.63;;;1.50;;
12145;SDS011;6136;47.032;15.398;2023-10-09T00:47:06;1.90;;;1.50;;
12145;SDS011;6136;47.032;15.398;2023-10-09T00:49:49;1.97;;;1.47;;
12145;SDS011;6136;47.032;15.398;2023-10-09T00:52:22;3.97;;;1.83;;
12145;SDS011;6136;47.032;15.398;2023-10-09T00:54:58;1.60;;;1.43;;
12145;SDS011;6136;47.032;15.398;2023-10-09T00:57:32;2.87;;;1.50;;
12145;SDS011;6136;47.032;15.398;2023-10-09T01:00:04;1.30;;;1.20;;
12145;SDS011;6136;47.032;15.398;2023-10-09T01:02:50;3.37;;;1.60;;
12145;SDS011;6136;47.032;15.398;2023-10-09T01:05:37;2.30;;;1.13;;
12145;SDS011;6136;47.032;15.398;2023-10-09T01:08:13;2.40;;;1.50;;
12145;SDS011;6136;47.032;15.398;2023-10-09T01:10:52;1.80;;;1.07;;
12145;SDS011;6136;47.032;15.398;2023-10-09T01:13:23;2.27;;;1.60;;
12145;SDS011;6136;47.032;15.398;2023-10-09T01:16:06;1.33;;;1.13;;
12145;SDS011;6136;47.032;15.398;2023-10-09T01:18:39;3.80;;;1.87;;
12145;SDS011;6136;47.032;15.398;2023-10-09T01:21:10;1.47;;;1.30;;
12145;SDS011;6136;47.032;15.398;2023-10-09T01:23:43;1.80;;;1.50;;
12145;SDS011;6136;47.032;15.398;2023-10-09T01:26:30;1.80;;;1.30;;
12145;SDS011;6136;47.032;15.398;2023-10-09T01:29:06;3.27;;;1.40;;
12145;SDS011;6136;47.032;15.398;2023-10-09T01:31:37;1.53;;;1.40;;
12145;SDS011;6136;47.032;15.398;2023-10-09T01:34:11;1.40;;;1.30;;
12145;SDS011;6136;47.032;15.398;2023-10-09T01:36:41;1.73;;;1.60;;
12145;SDS011;6136;47.032;15.398;2023-10-09T01:39:11;2.33;;;1.40;;
12145;SDS011;6136;47.032;15.398;2023-10-09T01:41:51;3.10;;;1.50;;
12145;SDS011;6136;47.032;15.398;2023-10-09T01:44:26;3.40;;;1.57;;
12145;SDS011;6136;47.032;15.398;2023-10-09T01:46:57;2.00;;;1.73;;
12145;SDS011;6136;47.032;15.398;2023-10-09T01:49:25;1.50;;;1.40;;
12145;SDS011;6136;47.032;15.398;2023-10-09T01:51:59;1.23;;;1.13;;
12145;SDS011;6136;47.032;15.398;2023-10-09T01:54:35;4.40;;;1.40;;
12145;SDS011;6136;47.032;15.398;2023-10-09T01:57:04;1.77;;;1.50;;
12145;SDS011;6136;47.032;15.398;2023-10-09T01:59:38;2.37;;;1.70;;
12145;SDS011;6136;47.032;15.398;2023-10-09T02:02:11;3.93;;;1.37;;
12145;SDS011;6136;47.032;15.398;2023-10-09T02:04:52;3.67;;;1.60;;
12145;SDS011;6136;47.032;15.398;2023-10-09T02:07:31;2.87;;;1.53;;
12145;SDS011;6136;47.032;15.398;2023-10-09T02:10:09;1.50;;;1.40;;
12145;SDS011;6136;47.032;15.398;2023-10-09T02:12:53;3.20;;;1.67;;
12145;SDS011;6136;47.032;15.398;2023-10-09T02:15:25;2.47;;;1.60;;
12145;SDS011;6136;47.032;15.398;2023-10-09T02:18:19;3.77;;;1.80;;
12145;SDS011;6136;47.032;15.398;2023-10-09T02:21:06;3.67;;;1.70;;
12145;SDS011;6136;47.032;15.398;2023-10-09T02:23:41;1.30;;;1.20;;
12145;SDS011;6136;47.032;15.398;2023-10-09T02:26:18;2.67;;;1.50;;
12145;SDS011;6136;47.032;15.398;2023-10-09T02:28:53;2.40;;;1.40;;
12145;SDS011;6136;47.032;15.398;2023-10-09T02:31:27;2.10;;;1.50;;
12145;SDS011;6136;47.032;15.398;2023-10-09T02:34:03;3.07;;;1.40;;
12145;SDS011;6136;47.032;15.398;2023-10-09T02:36:34;3.13;;;1.60;;
12145;SDS011;6136;47.032;15.398;2023-10-09T02:39:08;1.73;;;1.50;;
12145;SDS011;6136;47.032;15.398;2023-10-09T02:41:52;1.43;;;1.23;;
12145;SDS011;6136;47.032;15.398;2023-10-09T02:44:25;2.90;;;1.50;;
12145;SDS011;6136;47.032;15.398;2023-10-09T02:46:56;3.07;;;1.43;;
12145;SDS011;6136;47.032;15.398;2023-10-09T02:49:25;2.37;;;1.70;;
12145;SDS011;6136;47.032;15.398;2023-10-09T02:51:55;2.93;;;1.63;;
12145;SDS011;6136;47.032;15.398;2023-10-09T02:54:23;4.00;;;1.40;;
12145;SDS011;6136;47.032;15.398;2023-10-09T02:57:04;1.60;;;1.50;;
12145;SDS011;6136;47.032;15.398;2023-10-09T02:59:42;2.67;;;1.57;;
12145;SDS011;6136;47.032;15.398;2023-10-09T03:02:12;2.53;;;1.50;;
12145;SDS011;6136;47.032;15.398;2023-10-09T03:04:40;3.63;;;1.40;;
12145;SDS011;6136;47.032;15.398;2023-10-09T03:07:09;4.03;;;1.77;;
12145;SDS011;6136;47.032;15.398;2023-10-09T03:09:40;1.43;;;1.23;;
12145;SDS011;6136;47.032;15.398;2023-10-09T03:12:10;2.47;;;1.40;;
12145;SDS011;6136;47.032;15.398;2023-10-09T03:14:40;5.00;;;1.63;;
12145;SDS011;6136;47.032;15.398;2023-10-09T03:17:09;5.20;;;2.20;;
12145;SDS011;6136;47.032;15.398;2023-10-09T03:19:39;1.60;;;1.43;;
12145;SDS011;6136;47.032;15.398;2023-10-09T03:22:10;4.63;;;1.70;;
12145;SDS011;6136;47.032;15.398;2023-10-09T03:24:39;4.83;;;1.53;;
12145;SDS011;6136;47.032;15.398;2023-10-09T03:27:17;2.20;;;1.40;;
12145;SDS011;6136;47.032;15.398;2023-10-09T03:29:46;2.77;;;1.83;;
12145;SDS011;6136;47.032;15.398;2023-10-09T03:32:21;5.27;;;1.80;;
12145;SDS011;6136;47.032;15.398;2023-10-09T03:34:49;3.70;;;1.60;;
12145;SDS011;6136;47.032;15.398;2023-10-09T03:37:18;4.17;;;1.70;;
12145;SDS011;6136;47.032;15.398;2023-10-09T03:40:01;5.17;;;2.00;;
12145;SDS011;6136;47.032;15.398;2023-10-09T03:42:35;3.97;;;1.90;;
12145;SDS011;6136;47.032;15.398;2023-10-09T03:45:08;3.17;;;2.00;;
12145;SDS011;6136;47.032;15.398;2023-10-09T03:47:45;2.20;;;2.00;;
12145;SDS011;6136;47.032;15.398;2023-10-09T03:50:15;5.43;;;2.00;;
12145;SDS011;6136;47.032;15.398;2023-10-09T03:52:53;2.30;;;1.93;;
12145;SDS011;6136;47.032;15.398;2023-10-09T03:55:22;3.77;;;2.03;;
12145;SDS011;6136;47.032;15.398;2023-10-09T03:57:56;2.73;;;2.00;;
12145;SDS011;6136;47.032;15.398;2023-10-09T04:00:27;2.90;;;1.57;;
12145;SDS011;6136;47.032;15.398;2023-10-09T04:02:58;2.50;;;1.57;;
12145;SDS011;6136;47.032;15.398;2023-10-09T04:05:27;4.10;;;2.07;;
12145;SDS011;6136;47.032;15.398;2023-10-09T04:07:55;1.70;;;1.50;;
12145;SDS011;6136;47.032;15.398;2023-10-09T04:10:25;5.27;;;2.13;;
12145;SDS011;6136;47.032;15.398;2023-10-09T04:13:22;3.67;;;2.73;;
12145;SDS011;6136;47.032;15.398;2023-10-09T04:16:00;2.80;;;2.43;;
12145;SDS011;6136;47.032;15.398;2023-10-09T04:18:37;3.67;;;2.03;;
12145;SDS011;6136;47.032;15.398;2023-10-09T04:21:07;1.87;;;1.67;;
12145;SDS011;6136;47.032;15.398;2023-10-09T04:23:46;6.00;;;1.87;;
12145;SDS011;6136;47.032;15.398;2023-10-09T04:26:32;2.00;;;1.70;;
12145;SDS011;6136;47.032;15.398;2023-10-09T04:29:05;2.40;;;1.70;;
12145;SDS011;6136;47.032;15.398;2023-10-09T04:31:37;6.00;;;2.00;;
12145;SDS011;6136;47.032;15.398;2023-10-09T04:34:05;1.80;;;1.63;;
12145;SDS011;6136;47.032;15.398;2023-10-09T04:36:55;1.47;;;1.37;;
12145;SDS011;6136;47.032;15.398;2023-10-09T04:39:43;2.23;;;1.90;;
12145;SDS011;6136;47.032;15.398;2023-10-09T04:42:14;1.63;;;1.53;;
12145;SDS011;6136;47.032;15.398;2023-10-09T04:45:06;1.90;;;1.60;;
12145;SDS011;6136;47.032;15.398;2023-10-09T04:48:07;3.53;;;1.57;;
12145;SDS011;6136;47.032;15.398;2023-10-09T04:50:36;2.83;;;1.67;;
12145;SDS011;6136;47.032;15.398;2023-10-09T04:53:32;2.10;;;1.50;;
12145;SDS011;6136;47.032;15.398;2023-10-09T04:56:11;3.20;;;1.77;;
12145;SDS011;6136;47.032;15.398;2023-10-09T04:58:42;1.80;;;1.60;;
12145;SDS011;6136;47.032;15.398;2023-10-09T05:01:14;4.77;;;1.80;;
12145;SDS011;6136;47.032;15.398;2023-10-09T05:03:58;4.43;;;1.80;;
12145;SDS011;6136;47.032;15.398;2023-10-09T05:06:31;1.63;;;1.53;;
12145;SDS011;6136;47.032;15.398;2023-10-09T05:09:21;1.80;;;1.70;;
12145;SDS011;6136;47.032;15.398;2023-10-09T05:11:50;2.70;;;2.17;;
12145;SDS011;6136;47.032;15.398;2023-10-09T05:14:26;4.37;;;2.80;;
12145;SDS011;6136;47.032;15.398;2023-10-09T05:16:55;8.47;;;4.17;;
12145;SDS011;6136;47.032;15.398;2023-10-09T05:19:28;9.83;;;3.20;;
12145;SDS011;6136;47.032;15.398;2023-10-09T05:22:16;5.00;;;3.93;;
12145;SDS011;6136;47.032;15.398;2023-10-09T05:24:57;6.43;;;3.67;;
12145;SDS011;6136;47.032;15.398;2023-10-09T05:27:26;6.40;;;4.33;;
12145;SDS011;6136;47.032;15.398;2023-10-09T05:30:08;5.83;;;3.77;;
12145;SDS011;6136;47.032;15.398;2023-10-09T05:32:54;4.00;;;3.10;;
12145;SDS011;6136;47.032;15.398;2023-10-09T05:35:26;4.17;;;2.93;;
12145;SDS011;6136;47.032;15.398;2023-10-09T05:38:14;3.67;;;2.30;;
12145;SDS011;6136;47.032;15.398;2023-10-09T05:40:52;2.10;;;1.90;;
12145;SDS011;6136;47.032;15.398;2023-10-09T05:43:21;3.43;;;2.10;;
12145;SDS011;6136;47.032;15.398;2023-10-09T05:46:07;5.63;;;1.97;;
12145;SDS011;6136;47.032;15.398;2023-10-09T05:48:37;3.57;;;2.70;;
12145;SDS011;6136;47.032;15.398;2023-10-09T05:51:21;5.50;;;2.60;;
12145;SDS011;6136;47.032;15.398;2023-10-09T05:54:06;2.33;;;2.10;;
12145;SDS011;6136;47.032;15.398;2023-10-09T05:56:54;2.30;;;1.90;;
12145;SDS011;6136;47.032;15.398;2023-10-09T05:59:42;2.37;;;1.80;;
12145;SDS011;6136;47.032;15.398;2023-10-09T06:02:37;4.63;;;2.13;;
12145;SDS011;6136;47.032;15.398;2023-10-09T06:05:29;5.50;;;2.30;;
12145;SDS011;6136;47.032;15.398;2023-10-09T06:08:18;4.27;;;2.03;;
12145;SDS011;6136;47.032;15.398;2023-10-09T06:10:52;4.00;;;2.20;;
12145;SDS011;6136;47.032;15.398;2023-10-09T06:13:32;3.97;;;2.30;;
12145;SDS011;6136;47.032;15.398;2023-10-09T06:16:12;5.53;;;2.13;;
12145;SDS011;6136;47.032;15.398;2023-10-09T06:19:08;3.03;;;1.83;;
12145;SDS011;6136;47.032;15.398;2023-10-09T06:21:41;2.57;;;1.70;;
12145;SDS011;6136;47.032;15.398;2023-10-09T06:24:56;2.77;;;1.77;;
12145;SDS011;6136;47.032;15.398;2023-10-09T06:27:35;3.47;;;1.70;;
12145;SDS011;6136;47.032;15.398;2023-10-09T06:30:17;1.80;;;1.70;;
12145;SDS011;6136;47.032;15.398;2023-10-09T06:32:52;2.67;;;1.90;;
12145;SDS011;6136;47.032;15.398;2023-10-09T06:35:34;2.07;;;1.70;;
12145;SDS011;6136;47.032;15.398;2023-10-09T06:38:04;2.60;;;1.80;;
12145;SDS011;6136;47.032;15.398;2023-10-09T06:40:48;2.17;;;1.70;;
12145;SDS011;6136;47.032;15.398;2023-10-09T06:43:43;2.60;;;1.90;;
12145;SDS011;6136;47.032;15.398;2023-10-09T06:46:15;2.20;;;1.60;;
12145;SDS011;6136;47.032;15.398;2023-10-09T06:49:19;3.13;;;1.73;;
12145;SDS011;6136;47.032;15.398;2023-10-09T06:52:00;2.47;;;1.80;;
12145;SDS011;6136;47.032;15.398;2023-10-09T06:54:42;3.00;;;1.60;;
12145;SDS011;6136;47.032;15.398;2023-10-09T06:57:17;1.67;;;1.57;;
12145;SDS011;6136;47.032;15.398;2023-10-09T07:00:00;1.93;;;1.63;;
12145;SDS011;6136;47.032;15.398;2023-10-09T07:02:57;2.43;;;1.70;;
12145;SDS011;6136;47.032;15.398;2023-10-09T07:05:39;2.83;;;1.60;;
12145;SDS011;6136;47.032;15.398;2023-10-09T07:08:27;2.10;;;1.70;;
12145;SDS011;6136;47.032;15.398;2023-10-09T07:11:04;2.13;;;1.93;;
12145;SDS011;6136;47.032;15.398;2023-10-09T07:14:05;2.60;;;1.77;;
12145;SDS011;6136;47.032;15.398;2023-10-09T07:16:33;3.17;;;2.20;;
12145;SDS011;6136;47.032;15.398;2023-10-09T07:19:05;3.45;;;1.70;;
12145;SDS011;6136;47.032;15.398;2023-10-09T07:21:56;2.67;;;1.85;;
12145;SDS011;6136;47.032;15.398;2023-10-09T07:24:29;1.50;;;1.40;;
12145;SDS011;6136;47.032;15.398;2023-10-09T07:27:10;4.65;;;1.88;;
12145;SDS011;6136;47.032;15.398;2023-10-09T07:29:41;2.20;;;1.70;;
12145;SDS011;6136;47.032;15.398;2023-10-09T07:32:15;2.78;;;1.77;;
12145;SDS011;6136;47.032;15.398;2023-10-09T07:34:47;2.17;;;1.77;;
12145;SDS011;6136;47.032;15.398;2023-10-09T07:37:23;3.10;;;1.85;;
12145;SDS011;6136;47.032;15.398;2023-10-09T07:39:57;7.20;;;2.00;;
12145;SDS011;6136;47.032;15.398;2023-10-09T07:42:33;3.10;;;2.13;;
12145;SDS011;6136;47.032;15.398;2023-10-09T07:45:10;6.78;;;3.00;;
12145;SDS011;6136;47.032;15.398;2023-10-09T07:48:00;1.90;;;1.67;;
12145;SDS011;6136;47.032;15.398;2023-10-09T07:50:35;5.93;;;2.40;;
12145;SDS011;6136;47.032;15.398;2023-10-09T07:53:17;7.03;;;1.85;;
12145;SDS011;6136;47.032;15.398;2023-10-09T07:55:54;2.72;;;1.88;;
12145;SDS011;6136;47.032;15.398;2023-10-09T07:58:25;3.40;;;2.00;;
12145;SDS011;6136;47.032;15.398;2023-10-09T08:00:54;3.25;;;1.80;;
12145;SDS011;6136;47.032;15.398;2023-10-09T08:03:36;2.80;;;1.80;;
12145;SDS011;6136;47.032;15.398;2023-10-09T08:06:05;6.53;;;2.50;;
12145;SDS011;6136;47.032;15.398;2023-10-09T08:08:53;2.63;;;1.88;;
12145;SDS011;6136;47.032;15.398;2023-10-09T08:11:35;2.65;;;1.65;;
12145;SDS011;6136;47.032;15.398;2023-10-09T08:14:26;1.52;;;1.42;;
12145;SDS011;6136;47.032;15.398;2023-10-09T08:17:09;4.93;;;2.20;;
12145;SDS011;6136;47.032;15.398;2023-10-09T08:19:42;2.70;;;1.70;;
12145;SDS011;6136;47.032;15.398;2023-10-09T08:22:21;5.00;;;1.73;;
12145;SDS011;6136;47.032;15.398;2023-10-09T08:25:12;2.40;;;1.90;;
12145;SDS011;6136;47.032;15.398;2023-10-09T08:27:55;3.85;;;2.20;;
12145;SDS011;6136;47.032;15.398;2023-10-09T08:30:25;2.08;;;1.73;;
12145;SDS011;6136;47.032;15.398;2023-10-09T08:33:08;3.92;;;1.70;;
12145;SDS011;6136;47.032;15.398;2023-10-09T08:35:57;2.58;;;1.83;;
12145;SDS011;6136;47.032;15.398;2023-10-09T08:38:32;5.90;;;1.63;;
12145;SDS011;6136;47.032;15.398;2023-10-09T08:41:09;2.67;;;1.48;;
12145;SDS011;6136;47.032;15.398;2023-10-09T08:43:50;4.20;;;2.05;;
12145;SDS011;6136;47.032;15.398;2023-10-09T08:46:21;2.17;;;1.88;;
12145;SDS011;6136;47.032;15.398;2023-10-09T08:48:54;3.90;;;2.15;;
12145;SDS011;6136;47.032;15.398;2023-10-09T08:51:24;3.65;;;1.65;;
12145;SDS011;6136;47.032;15.398;2023-10-09T08:53:53;3.53;;;2.00;;
12145;SDS011;6136;47.032;15.398;2023-10-09T08:56:24;1.98;;;1.50;;
12145;SDS011;6136;47.032;15.398;2023-10-09T08:58:53;2.42;;;1.90;;
12145;SDS011;6136;47.032;15.398;2023-10-09T09:01:23;3.97;;;1.80;;
12145;SDS011;6136;47.032;15.398;2023-10-09T09:03:54;2.90;;;1.90;;
12145;SDS011;6136;47.032;15.398;2023-10-09T09:06:23;2.78;;;1.92;;
12145;SDS011;6136;47.032;15.398;2023-10-09T09:08:51;1.88;;;1.70;;
12145;SDS011;6136;47.032;15.398;2023-10-09T09:11:28;2.75;;;2.20;;
12145;SDS011;6136;47.032;15.398;2023-10-09T09:14:03;2.55;;;1.83;;
12145;SDS011;6136;47.032;15.398;2023-10-09T09:16:34;3.03;;;1.70;;
12145;SDS011;6136;47.032;15.398;2023-10-09T09:19:05;2.70;;;1.60;;
12145;SDS011;6136;47.032;15.398;2023-10-09T09:21:48;3.85;;;1.83;;
12145;SDS011;6136;47.032;15.398;2023-10-09T09:24:21;3.40;;;1.80;;
12145;SDS011;6136;47.032;15.398;2023-10-09T09:27:02;3.35;;;2.30;;
12145;SDS011;6136;47.032;15.398;2023-10-09T09:29:45;1.90;;;1.52;;
12145;SDS011;6136;47.032;15.398;2023-10-09T09:32:27;4.82;;;1.95;;
12145;SDS011;6136;47.032;15.398;2023-10-09T09:35:03;2.47;;;2.22;;
12145;SDS011;6136;47.032;15.398;2023-10-09T09:37:51;5.28;;;2.30;;
12145;SDS011;6136;47.032;15.398;2023-10-09T09:40:22;4.80;;;2.20;;
12145;SDS011;6136;47.032;15.398;2023-10-09T09:43:05;7.05;;;1.98;;
12145;SDS011;6136;47.032;15.398;2023-10-09T09:45:55;3.30;;;1.67;;
12145;SDS011;6136;47.032;15.398;2023-10-09T09:48:32;2.35;;;1.88;;
12145;SDS011;6136;47.032;15.398;2023-10-09T09:51:11;2.85;;;1.95;;
12145;SDS011;6136;47.032;15.398;2023-10-09T09:53:41;5.05;;;2.03;;
12145;SDS011;6136;47.032;15.398;2023-10-09T09:56:14;4.70;;;2.10;;
12145;SDS011;6136;47.032;15.398;2023-10-09T10:01:20;2.10;;;1.73;;
12145;SDS011;6136;47.032;15.398;2023-10-09T10:03:54;2.03;;;1.50;;
12145;SDS011;6136;47.032;15.398;2023-10-09T10:06:28;4.30;;;1.98;;
12145;SDS011;6136;47.032;15.398;2023-10-09T10:08:59;2.28;;;1.95;;
12145;SDS011;6136;47.032;15.398;2023-10-09T10:14:20;2.22;;;1.65;;
12145;SDS011;6136;47.032;15.398;2023-10-09T10:16:59;3.65;;;1.48;;
12145;SDS011;6136;47.032;15.398;2023-10-09T10:25:47;2.85;;;1.65;;
12145;SDS011;6136;47.032;15.398;2023-10-09T10:28:27;3.40;;;1.50;;
12145;SDS011;6136;47.032;15.398;2023-10-09T10:31:11;3.25;;;1.58;;
12145;SDS011;6136;47.032;15.398;2023-10-09T10:36:38;3.85;;;1.70;;
12145;SDS011;6136;47.032;15.398;2023-10-09T10:39:11;4.45;;;1.90;;
12145;SDS011;6136;47.032;15.398;2023-10-09T10:41:54;4.60;;;2.08;;
12145;SDS011;6136;47.032;15.398;2023-10-09T10:44:25;5.90;;;2.05;;
12145;SDS011;6136;47.032;15.398;2023-10-09T10:47:12;1.92;;;1.70;;
12145;SDS011;6136;47.032;15.398;2023-10-09T10:49:52;2.15;;;1.88;;
12145;SDS011;6136;47.032;15.398;2023-10-09T10:52:26;2.83;;;1.85;;
12145;SDS011;6136;47.032;15.398;2023-10-09T10:55:09;2.13;;;1.50;;
12145;SDS011;6136;47.032;15.398;2023-10-09T10:58:15;2.53;;;1.67;;
12145;SDS011;6136;47.032;15.398;2023-10-09T11:00:54;3.90;;;2.00;;
12145;SDS011;6136;47.032;15.398;2023-10-09T11:03:41;5.57;;;1.70;;
12145;SDS011;6136;47.032;15.398;2023-10-09T11:06:28;2.78;;;1.52;;
12145;SDS011;6136;47.032;15.398;2023-10-09T11:09:04;5.05;;;1.60;;
12145;SDS011;6136;47.032;15.398;2023-10-09T11:11:37;2.00;;;1.80;;
12145;SDS011;6136;47.032;15.398;2023-10-09T11:14:14;2.72;;;1.58;;
12145;SDS011;6136;47.032;15.398;2023-10-09T11:16:44;2.60;;;1.52;;
12145;SDS011;6136;47.032;15.398;2023-10-09T11:19:20;1.95;;;1.63;;
12145;SDS011;6136;47.032;15.398;2023-10-09T11:22:06;2.97;;;1.80;;
12145;SDS011;6136;47.032;15.398;2023-10-09T11:24:56;2.25;;;1.70;;
12145;SDS011;6136;47.032;15.398;2023-10-09T11:27:39;4.70;;;1.88;;
12145;SDS011;6136;47.032;15.398;2023-10-09T11:30:17;3.15;;;1.77;;
12145;SDS011;6136;47.032;15.398;2023-10-09T11:33:05;3.30;;;2.03;;
12145;SDS011;6136;47.032;15.398;2023-10-09T11:35:52;3.05;;;1.88;;
12145;SDS011;6136;47.032;15.398;2023-10-09T11:38:23;4.13;;;2.30;;
12145;SDS011;6136;47.032;15.398;2023-10-09T11:40:55;13.00;;;2.17;;
12145;SDS011;6136;47.032;15.398;2023-10-09T11:43:46;7.57;;;2.22;;
12145;SDS011;6136;47.032;15.398;2023-10-09T11:46:24;3.38;;;1.60;;
12145;SDS011;6136;47.032;15.398;2023-10-09T11:49:15;3.35;;;1.90;;
12145;SDS011;6136;47.032;15.398;2023-10-09T11:52:12;4.28;;;2.00;;
12145;SDS011;6136;47.032;15.398;2023-10-09T11:54:58;7.90;;;2.42;;
12145;SDS011;6136;47.032;15.398;2023-10-09T11:57:27;6.05;;;2.55;;
12145;SDS011;6136;47.032;15.398;2023-10-09T11:59:58;2.50;;;1.42;;
12145;SDS011;6136;47.032;15.398;2023-10-09T12:02:29;11.13;;;1.95;;
12145;SDS011;6136;47.032;15.398;2023-10-09T12:04:58;2.70;;;1.73;;
12145;SDS011;6136;47.032;15.398;2023-10-09T12:07:28;3.97;;;1.77;;
12145;SDS011;6136;47.032;15.398;2023-10-09T12:09:56;4.63;;;1.90;;
12145;SDS011;6136;47.032;15.398;2023-10-09T12:12:25;4.28;;;2.10;;
12145;SDS011;6136;47.032;15.398;2023-10-09T12:14:53;3.53;;;2.20;;
12145;SDS011;6136;47.032;15.398;2023-10-09T12:17:22;3.33;;;1.90;;
12145;SDS011;6136;47.032;15.398;2023-10-09T12:19:53;11.52;;;2.40;;
12145;SDS011;6136;47.032;15.398;2023-10-09T12:22:23;7.15;;;2.42;;
12145;SDS011;6136;47.032;15.398;2023-10-09T12:24:55;2.85;;;2.30;;
12145;SDS011;6136;47.032;15.398;2023-10-09T12:27:24;4.75;;;1.98;;
12145;SDS011;6136;47.032;15.398;2023-10-09T12:29:55;2.35;;;1.73;;
12145;SDS011;6136;47.032;15.398;2023-10-09T12:32:25;3.53;;;2.03;;
12145;SDS011;6136;47.032;15.398;2023-10-09T12:34:53;4.50;;;2.20;;
12145;SDS011;6136;47.032;15.398;2023-10-09T12:37:23;3.17;;;2.05;;
12145;SDS011;6136;47.032;15.398;2023-10-09T12:39:51;4.03;;;2.40;;
12145;SDS011;6136;47.032;15.398;2023-10-09T12:42:24;4.32;;;2.45;;
12145;SDS011;6136;47.032;15.398;2023-10-09T12:44:55;3.10;;;1.75;;
12145;SDS011;6136;47.032;15.398;2023-10-09T12:47:24;4.50;;;2.13;;
12145;SDS011;6136;47.032;15.398;2023-10-09T12:49:53;4.93;;;2.25;;
12145;SDS011;6136;47.032;15.398;2023-10-09T12:52:23;5.93;;;2.60;;
12145;SDS011;6136;47.032;15.398;2023-10-09T12:54:56;4.25;;;2.60;;
12145;SDS011;6136;47.032;15.398;2023-10-09T12:57:26;2.97;;;2.22;;
12145;SDS011;6136;47.032;15.398;2023-10-09T12:59:55;3.72;;;2.17;;
12145;SDS011;6136;47.032;15.398;2023-10-09T13:02:23;5.30;;;2.33;;
12145;SDS011;6136;47.032;15.398;2023-10-09T13:04:56;5.60;;;2.72;;
12145;SDS011;6136;47.032;15.398;2023-10-09T13:07:27;4.55;;;2.65;;
12145;SDS011;6136;47.032;15.398;2023-10-09T13:09:55;2.28;;;2.05;;
12145;SDS011;6136;47.032;15.398;2023-10-09T13:12:37;5.22;;;2.30;;
12145;SDS011;6136;47.032;15.398;2023-10-09T13:15:08;5.20;;;2.33;;
12145;SDS011;6136;47.032;15.398;2023-10-09T13:17:38;9.43;;;2.35;;
12145;SDS011;6136;47.032;15.398;2023-10-09T13:20:07;4.30;;;2.38;;
12145;SDS011;6136;47.032;15.398;2023-10-09T13:22:41;9.73;;;2.70;;
12145;SDS011;6136;47.032;15.398;2023-10-09T13:25:10;5.60;;;2.28;;
12145;SDS011;6136;47.032;15.398;2023-10-09T13:28:02;3.78;;;2.40;;
12145;SDS011;6136;47.032;15.398;2023-10-09T13:30:31;6.30;;;2.45;;
12145;SDS011;6136;47.032;15.398;2023-10-09T13:33:07;3.92;;;2.40;;
12145;SDS011;6136;47.032;15.398;2023-10-09T13:35:41;6.90;;;2.67;;
12145;SDS011;6136;47.032;15.398;2023-10-09T13:38:17;9.68;;;2.35;;
12145;SDS011;6136;47.032;15.398;2023-10-09T13:40:46;6.13;;;2.60;;
12145;SDS011;6136;47.032;15.398;2023-10-09T13:43:17;5.40;;;2.67;;
12145;SDS011;6136;47.032;15.398;2023-10-09T13:45:49;11.23;;;3.15;;
12145;SDS011;6136;47.032;15.398;2023-10-09T13:48:17;5.85;;;2.40;;
12145;SDS011;6136;47.032;15.398;2023-10-09T13:50:48;4.80;;;2.38;;
12145;SDS011;6136;47.032;15.398;2023-10-09T13:53:16;7.20;;;2.20;;
12145;SDS011;6136;47.032;15.398;2023-10-09T13:55:45;5.32;;;2.45;;
12145;SDS011;6136;47.032;15.398;2023-10-09T13:58:21;7.13;;;2.00;;
12145;SDS011;6136;47.032;15.398;2023-10-09T14:00:51;4.50;;;2.25;;
12145;SDS011;6136;47.032;15.398;2023-10-09T14:03:21;3.10;;;2.38;;
12145;SDS011;6136;47.032;15.398;2023-10-09T14:05:51;6.00;;;2.40;;
12145;SDS011;6136;47.032;15.398;2023-10-09T14:08:21;7.00;;;2.47;;
12145;SDS011;6136;47.032;15.398;2023-10-09T14:10:50;7.90;;;2.47;;
12145;SDS011;6136;47.032;15.398;2023-10-09T14:13:19;5.03;;;2.40;;
12145;SDS011;6136;47.032;15.398;2023-10-09T14:15:54;4.60;;;2.08;;
12145;SDS011;6136;47.032;15.398;2023-10-09T14:18:22;5.53;;;2.30;;
12145;SDS011;6136;47.032;15.398;2023-10-09T14:20:51;5.40;;;2.40;;
12145;SDS011;6136;47.032;15.398;2023-10-09T14:23:23;5.65;;;2.22;;
12145;SDS011;6136;47.032;15.398;2023-10-09T14:25:59;3.97;;;2.13;;
12145;SDS011;6136;47.032;15.398;2023-10-09T14:28:29;4.53;;;2.17;;
12145;SDS011;6136;47.032;15.398;2023-10-09T14:30:59;4.15;;;1.92;;
12145;SDS011;6136;47.032;15.398;2023-10-09T14:33:31;3.90;;;2.22;;
12145;SDS011;6136;47.032;15.398;2023-10-09T14:36:03;7.30;;;2.75;;
12145;SDS011;6136;47.032;15.398;2023-10-09T14:38:34;7.00;;;2.38;;
12145;SDS011;6136;47.032;15.398;2023-10-09T14:41:06;6.82;;;2.22;;
12145;SDS011;6136;47.032;15.398;2023-10-09T14:43:38;7.10;;;2.45;;
12145;SDS011;6136;47.032;15.398;2023-10-09T14:46:13;8.93;;;2.55;;
12145;SDS011;6136;47.032;15.398;2023-10-09T14:48:43;9.18;;;2.80;;
12145;SDS011;6136;47.032;15.398;2023-10-09T14:51:13;5.50;;;2.00;;
12145;SDS011;6136;47.032;15.398;2023-10-09T14:53:42;4.20;;;2.15;;
12145;SDS011;6136;47.032;15.398;2023-10-09T14:56:11;8.15;;;2.20;;
12145;SDS011;6136;47.032;15.398;2023-10-09T14:58:43;8.40;;;2.60;;
12145;SDS011;6136;47.032;15.398;2023-10-09T15:01:15;3.30;;;2.28;;
12145;SDS011;6136;47.032;15.398;2023-10-09T15:03:46;4.45;;;2.33;;
12145;SDS011;6136;47.032;15.398;2023-10-09T15:06:19;7.82;;;2.67;;
12145;SDS011;6136;47.032;15.398;2023-10-09T15:08:48;3.80;;;2.30;;
12145;SDS011;6136;47.032;15.398;2023-10-09T15:11:20;4.47;;;2.47;;
12145;SDS011;6136;47.032;15.398;2023-10-09T15:13:51;4.78;;;2.75;;
12145;SDS011;6136;47.032;15.398;2023-10-09T15:16:21;7.88;;;2.72;;
12145;SDS011;6136;47.032;15.398;2023-10-09T15:18:54;8.77;;;2.60;;
12145;SDS011;6136;47.032;15.398;2023-10-09T15:21:29;9.95;;;2.90;;
12145;SDS011;6136;47.032;15.398;2023-10-09T15:23:59;12.07;;;2.83;;
12145;SDS011;6136;47.032;15.398;2023-10-09T15:26:28;4.45;;;2.45;;
12145;SDS011;6136;47.032;15.398;2023-10-09T15:29:00;9.88;;;2.88;;
12145;SDS011;6136;47.032;15.398;2023-10-09T15:31:35;7.47;;;2.63;;
12145;SDS011;6136;47.032;15.398;2023-10-09T15:34:04;6.88;;;2.75;;
12145;SDS011;6136;47.032;15.398;2023-10-09T15:36:35;6.07;;;2.67;;
12145;SDS011;6136;47.032;15.398;2023-10-09T15:39:04;4.75;;;2.80;;
12145;SDS011;6136;47.032;15.398;2023-10-09T15:41:35;5.32;;;2.35;;
12145;SDS011;6136;47.032;15.398;2023-10-09T15:44:06;4.72;;;2.00;;
12145;SDS011;6136;47.032;15.398;2023-10-09T15:46:35;6.10;;;2.40;;
12145;SDS011;6136;47.032;15.398;2023-10-09T15:49:03;7.63;;;2.22;;
12145;SDS011;6136;47.032;15.398;2023-10-09T15:51:34;3.58;;;2.50;;
12145;SDS011;6136;47.032;15.398;2023-10-09T15:54:02;7.57;;;2.65;;